Time;durP1;ratioP1;P1;durP2;ratioP2;P2;SDS_P1;SDS_P2;PMS_P1;PMS_P2;Temp;Humidity;BMP_temperature;BMP_pressure;BME280_temperature;BME280_humidity;BME280_pressure;Samples;Min_cycle;Max_cycle;Signal;HPM_P1;HPM_P2
2023/02/14 00:00:10;;;;;;;;;;;9.80;72.30;;;8.48;57.74;102438.09;4988872;28;20026;-78
2023/02/14 00:02:37;;;;;;;;;;;9.80;72.30;;;8.47;57.84;102433.78;4989823;28;19933;-77
2023/02/14 00:05:06;;;;;;;;;;;9.80;72.30;;;8.44;57.89;102431.41;4990359;28;19937;-77
2023/02/14 00:07:33;;;;;;;;;;;9.80;72.10;;;8.39;57.72;102431.84;4988253;28;19933;-77
2023/02/14 00:10:00;;;;;;;;;;;9.80;72.20;;;8.36;57.81;102428.66;4989131;28;20310;-77
2023/02/14 00:12:27;;;;;;;;;;;9.70;72.10;;;8.31;57.71;102434.41;4989689;28;19934;-77
2023/02/14 00:17:38;;;;;;;;;;;9.70;72.20;;;8.29;57.53;102427.53;4986603;28;20050;-77
2023/02/14 00:20:07;;;;;;;;;;;9.60;71.70;;;8.22;57.58;102428.13;4988585;28;19938;-77
2023/02/14 00:22:34;;;;;;;;;;;9.70;71.90;;;8.23;57.48;102423.66;4990430;28;20306;-77
2023/02/14 00:25:01;;;;;;;;;;;9.60;71.70;;;8.19;56.95;102428.41;4988999;28;19936;-77
2023/02/14 00:27:28;;;;;;;;;;;9.60;71.50;;;8.18;57.18;102431.25;4991125;28;19932;-77
2023/02/14 00:29:57;;;;;;;;;;;9.60;71.30;;;8.14;56.90;102420.06;4990683;28;19932;-77
2023/02/14 00:32:24;;;;;;;;;;;9.60;71.20;;;8.11;56.78;102427.50;4987809;28;20429;-78
2023/02/14 00:34:53;;;;;;;;;;;9.50;71.10;;;8.09;56.92;102419.66;4987838;28;19926;-77
2023/02/14 00:37:22;;;;;;;;;;;9.50;71.00;;;8.07;56.87;102420.81;4990991;28;19932;-77
2023/02/14 00:39:49;;;;;;;;;;;9.50;71.10;;;8.07;57.07;102418.97;4988620;28;19932;-77
2023/02/14 00:42:17;;;;;;;;;;;9.40;71.10;;;8.07;56.78;102420.81;5004572;28;19930;-77
2023/02/14 00:44:46;;;;;;;;;;;9.50;71.10;;;8.08;56.85;102415.34;4990418;28;19929;-77
2023/02/14 00:47:12;;;;;;;;;;;9.40;71.30;;;8.05;56.98;102409.47;4991021;28;19929;-77
2023/02/14 00:49:39;;;;;;;;;;;9.40;71.30;;;8.04;57.05;102411.28;5003327;23;20025;-78
2023/02/14 00:52:07;;;;;;;;;;;9.40;71.50;;;8.05;56.92;102418.28;4989104;28;19930;-77
2023/02/14 00:54:35;;;;;;;;;;;9.40;71.40;;;8.04;56.96;102423.75;4992347;28;19925;-78
2023/02/14 00:57:02;;;;;;;;;;;9.40;71.40;;;7.96;56.66;102421.84;4990550;28;19980;-78
2023/02/14 00:59:29;;;;;;;;;;;9.30;71.00;;;7.92;56.42;102421.28;4993066;28;19925;-77
2023/02/14 01:01:56;;;;;;;;;;;9.30;70.70;;;7.92;56.23;102423.94;4990790;28;19933;-78
2023/02/14 01:04:22;;;;;;;;;;;9.30;70.70;;;7.89;56.07;102420.72;4993413;28;19930;-78
2023/02/14 01:06:49;;;;;;;;;;;9.30;70.70;;;7.88;56.29;102427.03;4985627;28;19940;-77
2023/02/14 01:09:16;;;;;;;;;;;9.20;70.50;;;7.86;56.39;102427.19;4990374;28;20377;-77
2023/02/14 01:11:45;;;;;;;;;;;9.20;70.50;;;7.86;56.25;102427.19;4991068;28;19932;-78
2023/02/14 01:14:12;;;;;;;;;;;9.20;70.50;;;7.85;56.22;102436.09;4991346;28;19937;-78
2023/02/14 01:16:39;;;;;;;;;;;9.20;70.50;;;7.81;56.07;102428.56;4992837;28;19953;-78
2023/02/14 01:19:07;;;;;;;;;;;9.20;70.60;;;7.78;56.34;102437.69;4988718;28;20336;-77
2023/02/14 01:21:35;;;;;;;;;;;9.20;70.70;;;7.82;56.33;102433.75;4993738;28;20024;-77
2023/02/14 01:24:04;;;;;;;;;;;9.20;70.70;;;7.81;56.14;102421.47;4985272;28;19929;-77
2023/02/14 01:26:31;;;;;;;;;;;9.20;70.70;;;7.79;56.30;102422.59;4990181;28;19933;-78
2023/02/14 01:29:02;;;;;;;;;;;9.10;70.70;;;7.78;56.59;102415.59;4988517;28;19933;-78
2023/02/14 01:31:31;;;;;;;;;;;9.10;70.90;;;7.74;56.64;102423.84;5010682;28;19932;-78
2023/02/14 01:33:59;;;;;;;;;;;9.10;71.10;;;7.73;56.80;102421.34;4989411;28;19930;-78
2023/02/14 01:36:30;;;;;;;;;;;9.10;71.10;;;7.70;56.77;102417.13;4989906;28;19930;-78
2023/02/14 01:38:59;;;;;;;;;;;9.10;71.10;;;7.67;56.78;102414.78;4990584;28;19937;-78
2023/02/14 01:41:27;;;;;;;;;;;9.10;71.10;;;7.65;56.74;102427.38;4995615;28;19925;-78
2023/02/14 01:43:57;;;;;;;;;;;9.00;70.90;;;7.63;56.63;102417.88;4991117;28;19963;-77
2023/02/14 01:46:28;;;;;;;;;;;9.00;70.70;;;7.61;56.22;102410.06;4995097;28;19934;-77
2023/02/14 01:48:59;;;;;;;;;;;9.00;70.50;;;7.60;56.06;102411.03;4993385;28;19934;-78
2023/02/14 01:51:26;;;;;;;;;;;9.00;70.50;;;7.58;56.05;102413.00;4995267;28;20029;-78
2023/02/14 01:53:54;;;;;;;;;;;9.00;70.30;;;7.55;56.27;102410.63;4994582;28;19926;-78
2023/02/14 01:56:25;;;;;;;;;;;9.00;70.30;;;7.54;56.34;102410.78;4986678;28;19937;-78
2023/02/14 01:58:55;;;;;;;;;;;9.00;70.50;;;7.55;56.36;102413.28;4990284;28;19926;-78
2023/02/14 02:01:23;;;;;;;;;;;8.90;70.70;;;7.57;56.36;102418.47;4995371;28;19936;-78
2023/02/14 02:03:54;;;;;;;;;;;8.90;70.90;;;7.55;56.46;102410.63;4999086;28;19929;-78
2023/02/14 02:06:23;;;;;;;;;;;8.90;70.80;;;7.53;56.32;102415.25;4993644;28;20020;-77
2023/02/14 02:08:55;;;;;;;;;;;8.90;70.90;;;7.52;56.53;102408.28;4993255;28;19933;-77
2023/02/14 02:11:22;;;;;;;;;;;8.90;70.80;;;7.51;56.41;102411.88;4989586;28;19929;-78
2023/02/14 02:13:49;;;;;;;;;;;8.90;70.80;;;7.50;56.36;102410.22;4986609;28;20302;-78
2023/02/14 02:16:31;;;;;;;;;;;8.90;70.70;;;7.48;56.43;102418.34;4991150;28;19936;-77
2023/02/14 02:19:14;;;;;;;;;;;8.90;70.90;;;7.47;56.39;102411.34;4990359;28;19930;-78
2023/02/14 02:22:05;;;;;;;;;;;8.90;70.70;;;7.43;56.33;102403.81;4986850;28;19926;-78
2023/02/14 02:24:39;;;;;;;;;;;8.80;70.70;;;7.40;56.46;102407.56;4979826;28;19933;-77
2023/02/14 02:27:29;;;;;;;;;;;8.80;70.70;;;7.41;56.28;102405.75;4997872;28;19940;-78
2023/02/14 02:30:31;;;;;;;;;;;8.80;70.70;;;7.40;56.08;102407.56;5003552;28;19926;-77
2023/02/14 02:33:35;;;;;;;;;;;8.80;70.70;;;7.38;56.16;102393.63;4992137;28;19930;-78
2023/02/14 02:36:33;;;;;;;;;;;8.70;70.70;;;7.36;56.19;102397.38;4989528;28;20028;-78
2023/02/14 02:39:09;;;;;;;;;;;8.70;70.70;;;7.35;56.04;102393.06;4976560;28;19940;-78
2023/02/14 02:41:47;;;;;;;;;;;8.70;70.70;;;7.35;56.16;102385.94;4992221;28;19934;-78
2023/02/14 02:44:21;;;;;;;;;;;8.70;70.70;;;7.35;56.15;102395.72;4989203;28;19965;-78
2023/02/14 02:46:55;;;;;;;;;;;8.70;70.80;;;7.34;56.38;102386.91;4987185;28;20310;-77
2023/02/14 02:55:08;;;;;;;;;;;8.70;70.90;;;7.32;56.06;102377.41;4988451;28;19937;-78
2023/02/14 02:57:38;;;;;;;;;;;8.60;70.70;;;7.31;56.44;102375.75;4990428;28;20008;-78
2023/02/14 03:00:07;;;;;;;;;;;8.70;70.70;;;7.27;56.33;102375.22;4985287;28;19972;-78
2023/02/14 03:04:46;;;;;;;;;;;8.60;70.70;;;7.28;56.14;102384.00;4991472;28;20474;-78
2023/02/14 03:05:26;;;;;;;;;;;8.60;70.60;;;7.28;56.28;102381.34;4992673;28;19933;-78
2023/02/14 03:07:54;;;;;;;;;;;8.60;70.70;;;7.31;56.48;102389.00;4990288;28;19925;-78
2023/02/14 03:10:24;;;;;;;;;;;8.60;70.80;;;7.29;56.39;102390.97;4992834;28;19929;-77
2023/02/14 03:13:24;;;;;;;;;;;8.60;70.90;;;7.27;56.64;102384.97;4991144;28;19929;-77
2023/02/14 03:16:10;;;;;;;;;;;8.60;70.90;;;7.28;56.58;102386.66;4984522;28;19936;-77
2023/02/14 03:18:45;;;;;;;;;;;8.60;71.00;;;7.28;56.55;102384.00;4987854;28;20333;-77
2023/02/14 03:21:21;;;;;;;;;;;8.60;70.90;;;7.25;56.32;102381.63;4991135;28;19926;-77
2023/02/14 03:23:54;;;;;;;;;;;8.60;70.90;;;7.21;56.60;102379.25;4990548;28;19940;-77
2023/02/14 03:26:26;;;;;;;;;;;8.60;70.90;;;7.20;56.24;102388.19;4994323;28;19930;-77
2023/02/14 03:29:01;;;;;;;;;;;8.50;70.90;;;7.17;56.72;102387.63;4989970;28;19929;-77
2023/02/14 03:31:31;;;;;;;;;;;8.50;70.90;;;7.16;56.27;102380.66;4979375;28;19957;-78
2023/02/14 03:34:08;;;;;;;;;;;8.50;70.90;;;7.15;56.09;102382.47;4988275;28;20386;-77
2023/02/14 03:36:40;;;;;;;;;;;8.60;70.80;;;7.15;56.23;102386.94;4992854;28;19925;-78
2023/02/14 03:39:13;;;;;;;;;;;8.50;70.70;;;7.11;56.33;102386.38;4992852;28;19957;-77
2023/02/14 03:41:46;;;;;;;;;;;8.50;70.60;;;7.11;56.15;102382.91;4979902;28;20359;-77
2023/02/14 03:44:17;;;;;;;;;;;8.50;70.50;;;7.09;56.34;102382.22;4991698;28;19955;-78
2023/02/14 03:46:46;;;;;;;;;;;8.50;70.60;;;7.09;56.12;102377.75;4991136;28;19929;-77
2023/02/14 03:49:17;;;;;;;;;;;8.40;70.50;;;7.07;56.36;102387.63;4992868;28;19926;-77
2023/02/14 03:51:47;;;;;;;;;;;8.40;70.60;;;7.05;56.35;102383.47;4987577;28;19930;-78
2023/02/14 03:54:16;;;;;;;;;;;8.40;70.60;;;7.04;56.26;102392.41;4992759;28;19930;-77
2023/02/14 03:56:47;;;;;;;;;;;8.40;70.70;;;7.07;56.26;102387.63;4994543;28;19926;-77
2023/02/14 03:59:16;;;;;;;;;;;8.40;70.70;;;7.07;56.38;102381.50;4992040;28;19929;-77
2023/02/14 04:01:46;;;;;;;;;;;8.40;70.70;;;7.07;56.27;102378.84;4997116;28;19932;-77
2023/02/14 04:04:16;;;;;;;;;;;8.40;70.90;;;7.05;56.67;102380.81;4994332;28;19954;-77
2023/02/14 04:06:43;;;;;;;;;;;8.40;71.00;;;7.03;56.74;102382.75;4991797;28;19929;-78
2023/02/14 04:09:10;;;;;;;;;;;8.40;71.10;;;7.06;56.69;102377.19;4988798;28;19936;-78
2023/02/14 04:11:38;;;;;;;;;;;8.40;71.10;;;7.06;56.67;102377.19;4995313;28;19925;-77
2023/02/14 04:14:05;;;;;;;;;;;8.40;71.20;;;7.06;57.06;102380.66;4995212;28;19940;-78
2023/02/14 04:19:21;;;;;;;;;;;8.40;71.40;;;7.02;56.91;102373.97;4999017;28;19929;-78
2023/02/14 04:19:22;;;;;;;;;;;8.40;71.30;;;6.99;56.83;102374.25;4992686;28;19938;-77
2023/02/14 04:21:49;;;;;;;;;;;8.30;71.30;;;6.97;56.58;102371.72;4991877;28;19925;-78
2023/02/14 04:24:16;;;;;;;;;;;8.30;71.20;;;6.92;56.84;102370.47;4988469;28;19925;-78
2023/02/14 04:26:52;;;;;;;;;;;8.30;71.10;;;6.87;56.78;102364.75;4987664;28;19933;-77
2023/02/14 04:29:20;;;;;;;;;;;8.30;71.10;;;6.83;56.53;102379.28;4986301;28;20037;-78
2023/02/14 04:31:47;;;;;;;;;;;8.30;71.10;;;6.79;56.65;102377.91;4988997;28;19965;-82
2023/02/14 04:34:14;;;;;;;;;;;8.20;70.80;;;6.77;56.64;102378.00;4989027;28;19933;-77
2023/02/14 04:36:41;;;;;;;;;;;8.20;70.80;;;6.77;56.30;102361.28;4987537;28;19930;-77
2023/02/14 04:39:08;;;;;;;;;;;8.20;70.70;;;6.76;56.58;102370.22;4984742;28;19932;-76
2023/02/14 04:41:35;;;;;;;;;;;8.20;70.80;;;6.76;56.77;102364.91;4989563;28;20652;-77
2023/02/14 04:44:03;;;;;;;;;;;8.10;70.80;;;6.73;56.73;102366.00;4988104;28;19933;-76
2023/02/14 04:46:30;;;;;;;;;;;8.10;71.10;;;6.71;56.73;102366.16;4986109;28;19933;-76
2023/02/14 04:48:58;;;;;;;;;;;8.10;71.20;;;6.72;56.89;102364.34;4988311;28;20349;-76
2023/02/14 04:51:25;;;;;;;;;;;8.10;71.20;;;6.72;57.04;102353.72;4989358;28;19937;-76
2023/02/14 04:53:52;;;;;;;;;;;8.10;71.20;;;6.74;57.09;102358.91;4986882;28;19926;-76
2023/02/14 04:56:18;;;;;;;;;;;8.10;71.50;;;6.77;56.74;102353.31;4986897;28;19933;-76
2023/02/14 04:58:45;;;;;;;;;;;8.10;71.60;;;6.80;56.93;102345.09;4989151;28;19930;-77
2023/02/14 05:01:14;;;;;;;;;;;8.10;71.50;;;6.77;56.51;102346.19;4986126;28;20393;-76
2023/02/14 05:03:41;;;;;;;;;;;8.10;71.10;;;6.74;56.60;102354.44;4990157;28;19941;-76
2023/02/14 05:06:08;;;;;;;;;;;8.10;71.00;;;6.68;56.49;102347.88;4986566;28;19952;-76
2023/02/14 05:08:35;;;;;;;;;;;8.10;71.10;;;6.67;56.32;102337.41;4986631;28;19934;-76
2023/02/14 05:11:02;;;;;;;;;;;8.00;70.90;;;6.67;56.50;102332.09;4986551;28;20321;-76
2023/02/14 05:13:30;;;;;;;;;;;8.00;70.70;;;6.64;56.19;102329.75;4990860;28;19926;-77
2023/02/14 05:15:58;;;;;;;;;;;8.00;70.60;;;6.62;56.33;102332.53;4988526;28;19973;-76
2023/02/14 05:18:26;;;;;;;;;;;8.00;70.60;;;6.64;56.31;102327.94;4988498;28;19929;-76
2023/02/14 05:20:54;;;;;;;;;;;8.00;70.50;;;6.64;56.10;102340.34;4987007;28;20402;-75
2023/02/14 05:23:21;;;;;;;;;;;8.00;70.70;;;6.58;55.98;102331.13;4991487;28;19956;-76
2023/02/14 05:25:49;;;;;;;;;;;7.90;70.60;;;6.57;55.90;102332.09;4983598;28;19936;-76
2023/02/14 05:28:16;;;;;;;;;;;8.10;70.60;;;6.57;56.26;102320.66;4990006;28;19952;-76
2023/02/14 05:30:43;;;;;;;;;;;7.90;70.50;;;6.52;56.01;102326.38;4991038;28;20171;-75
2023/02/14 05:33:10;;;;;;;;;;;7.90;70.50;;;6.53;56.25;102321.91;4989495;28;20345;-77
2023/02/14 05:35:38;;;;;;;;;;;7.90;70.50;;;6.51;56.22;102321.22;4986313;28;20028;-77
2023/02/14 05:38:05;;;;;;;;;;;7.90;70.50;;;6.51;56.04;102322.06;4990435;28;19941;-77
2023/02/14 05:40:32;;;;;;;;;;;7.90;70.60;;;6.52;56.64;102320.25;4988820;28;19932;-76
2023/02/14 05:42:59;;;;;;;;;;;7.80;70.70;;;6.52;56.21;102321.09;4985330;28;19964;-76
2023/02/14 05:45:26;;;;;;;;;;;7.80;70.90;;;6.51;56.60;102307.97;4993479;28;20013;-79
2023/02/14 05:47:53;;;;;;;;;;;7.80;71.00;;;6.51;56.53;102308.81;4984593;28;19929;-78
2023/02/14 05:50:20;;;;;;;;;;;7.80;71.10;;;6.56;56.63;102311.88;4983948;28;19930;-77
2023/02/14 05:52:49;;;;;;;;;;;7.80;71.30;;;6.51;56.80;102321.22;4989239;28;20506;-77
2023/02/14 05:55:25;;;;;;;;;;;7.80;71.30;;;6.46;56.52;102316.34;4991781;28;20390;-77
2023/02/14 05:57:52;;;;;;;;;;;7.80;71.10;;;6.42;56.52;102315.78;4985358;28;20032;-77
2023/02/14 06:00:20;;;;;;;;;;;7.80;71.10;;;6.42;56.68;102320.25;4987531;28;19934;-77
2023/02/14 06:02:47;;;;;;;;;;;7.80;71.30;;;6.43;56.66;102321.91;4981587;28;19934;-77
2023/02/14 06:05:17;;;;;;;;;;;7.80;71.30;;;6.46;56.96;102319.00;4985371;28;19929;-77
2023/02/14 06:07:49;;;;;;;;;;;7.80;71.40;;;6.45;56.87;102319.97;4993880;28;20393;-77
2023/02/14 06:10:17;;;;;;;;;;;7.80;71.30;;;6.41;56.85;102323.88;4992442;28;19937;-76
2023/02/14 06:12:45;;;;;;;;;;;7.80;71.50;;;6.42;56.83;102321.06;4984978;28;20429;-76
2023/02/14 06:15:12;;;;;;;;;;;7.80;71.50;;;6.42;57.07;102322.88;4985988;28;19934;-77
2023/02/14 06:17:39;;;;;;;;;;;7.80;71.50;;;6.44;56.93;102328.88;4984923;28;19929;-77
2023/02/14 06:20:09;;;;;;;;;;;7.80;71.50;;;6.43;57.00;102335.16;4988681;28;20279;-77
2023/02/14 06:22:36;;;;;;;;;;;7.80;71.40;;;6.43;57.15;102335.16;4988042;28;19929;-77
2023/02/14 06:25:04;;;;;;;;;;;7.80;71.70;;;6.43;57.12;102340.47;4989126;28;19925;-77
2023/02/14 06:27:32;;;;;;;;;;;7.80;71.70;;;6.42;56.82;102338.78;4995924;28;20007;-77
2023/02/14 06:29:59;;;;;;;;;;;7.80;71.70;;;6.39;57.01;102342.56;4985000;28;19937;-77
2023/02/14 06:32:26;;;;;;;;;;;7.70;71.60;;;6.36;57.01;102345.47;4986822;28;20028;-77
2023/02/14 06:34:53;;;;;;;;;;;7.70;71.50;;;6.33;57.00;102351.03;4987907;28;19931;-77
2023/02/14 06:37:20;;;;;;;;;;;7.70;71.50;;;6.32;57.12;102351.19;4991584;28;19926;-77
2023/02/14 06:39:47;;;;;;;;;;;7.70;71.40;;;6.32;56.88;102354.69;4991923;28;19930;-77
2023/02/14 06:42:14;;;;;;;;;;;7.70;71.40;;;6.27;57.10;102353.41;4993969;28;19929;-77
2023/02/14 06:44:42;;;;;;;;;;;7.60;71.30;;;6.24;57.14;102357.16;4989418;28;20305;-77
2023/02/14 06:47:09;;;;;;;;;;;7.60;71.30;;;6.26;57.03;102355.22;4981274;28;19929;-77
2023/02/14 06:49:36;;;;;;;;;;;7.60;71.50;;;6.27;56.93;102361.38;5002918;22;19930;-84
2023/02/14 06:52:04;;;;;;;;;;;7.60;71.30;;;6.27;57.14;102356.91;4988792;28;20337;-84
2023/02/14 06:54:31;;;;;;;;;;;7.60;71.50;;;6.30;57.13;102356.63;4990669;28;19930;-84
2023/02/14 06:56:58;;;;;;;;;;;7.60;71.60;;;6.30;57.18;102363.75;4990615;28;19933;-84
2023/02/14 06:59:25;;;;;;;;;;;7.60;71.70;;;6.30;57.07;102364.59;4986977;28;19926;-84
2023/02/14 07:01:54;;;;;;;;;;;7.60;71.60;;;6.30;57.37;102361.94;4987551;28;20000;-84
2023/02/14 07:04:21;;;;;;;;;;;7.60;71.70;;;6.31;56.91;102358.31;4991410;28;19926;-84
2023/02/14 07:06:48;;;;;;;;;;;7.60;71.90;;;6.33;57.26;102360.81;4989614;28;19976;-83
2023/02/14 07:09:17;;;;;;;;;;;7.60;71.90;;;6.33;57.20;102358.16;4990475;28;19936;-84
2023/02/14 07:11:44;;;;;;;;;;;7.60;72.10;;;6.33;57.44;102366.09;4989258;28;19929;-84
2023/02/14 07:14:11;;;;;;;;;;;7.60;72.30;;;6.36;57.59;102361.38;4972210;28;19926;-84
2023/02/14 07:16:38;;;;;;;;;;;7.60;72.30;;;6.39;57.26;102365.56;4989407;28;19925;-84
2023/02/14 07:19:07;;;;;;;;;;;7.60;72.20;;;6.39;57.22;102361.13;4988270;28;20423;-84
2023/02/14 07:21:34;;;;;;;;;;;7.70;72.30;;;6.40;57.23;102361.97;4989126;28;19937;-83
2023/02/14 07:24:01;;;;;;;;;;;7.70;72.40;;;6.40;57.21;102364.59;4992930;28;20275;-84
2023/02/14 07:26:27;;;;;;;;;;;7.70;72.30;;;6.36;57.44;102365.84;4974319;28;20306;-84
2023/02/14 07:28:54;;;;;;;;;;;7.60;72.30;;;6.36;57.55;102364.03;4989649;28;20052;-84
2023/02/14 07:31:22;;;;;;;;;;;7.70;72.70;;;6.41;57.75;102372.41;4992118;28;19936;-84
2023/02/14 07:33:49;;;;;;;;;;;7.70;72.60;;;6.41;57.54;102363.63;4990215;28;19930;-84
2023/02/14 07:36:18;;;;;;;;;;;7.70;72.70;;;6.43;57.64;102359.84;4989091;28;19925;-84
2023/02/14 07:38:45;;;;;;;;;;;7.70;72.90;;;6.43;57.87;102359.00;4992045;28;19930;-84
2023/02/14 07:41:12;;;;;;;;;;;7.70;73.00;;;6.48;58.09;102358.59;4991353;28;19957;-84
2023/02/14 07:43:39;;;;;;;;;;;7.70;72.90;;;6.49;58.21;102365.56;4975846;28;19926;-84
2023/02/14 07:46:07;;;;;;;;;;;7.70;73.00;;;6.55;57.94;102360.56;4989076;28;20394;-83
2023/02/14 07:48:34;;;;;;;;;;;7.80;73.10;;;6.60;58.30;102361.00;4971276;28;19930;-84
2023/02/14 07:51:01;;;;;;;;;;;7.80;73.50;;;6.61;58.10;102362.66;4992252;28;20020;-84
2023/02/14 07:53:30;;;;;;;;;;;7.80;73.50;;;6.62;58.53;102358.19;4994369;28;20053;-84
2023/02/14 07:55:57;;;;;;;;;;;7.80;73.50;;;6.65;58.44;102363.22;4991899;28;19929;-83
2023/02/14 07:58:24;;;;;;;;;;;7.90;73.90;;;6.68;58.67;102361.13;4992634;28;20393;-84
2023/02/14 08:00:51;;;;;;;;;;;7.90;73.90;;;6.70;58.75;102361.00;4979653;28;20301;-84
2023/02/14 08:03:18;;;;;;;;;;;7.90;74.10;;;6.70;59.04;102353.88;4987930;28;19933;-84
2023/02/14 08:05:55;;;;;;;;;;;7.90;74.50;;;6.74;59.31;102359.75;4989820;28;21017;-84
2023/02/14 08:08:24;;;;;;;;;;;8.00;74.60;;;6.74;59.27;102348.31;4994139;28;19936;-83
2023/02/14 08:10:53;;;;;;;;;;;7.90;74.70;;;6.77;59.35;102348.00;4991162;28;20378;-84
2023/02/14 08:13:20;;;;;;;;;;;7.90;74.70;;;6.81;59.48;102354.72;4989813;28;19930;-84
2023/02/14 08:16:05;;;;;;;;;;;8.00;74.70;;;6.88;59.63;102346.06;4986505;28;19941;-84
2023/02/14 08:18:33;;;;;;;;;;;8.00;74.90;;;6.94;59.82;102352.63;4992241;28;21246;-84
2023/02/14 08:21:00;;;;;;;;;;;8.10;75.30;;;6.96;59.73;102348.84;4993524;28;20020;-83
2023/02/14 08:23:27;;;;;;;;;;;8.10;75.20;;;7.00;60.04;102356.53;4990935;28;19934;-84
2023/02/14 08:25:56;;;;;;;;;;;8.10;75.60;;;7.02;60.16;102350.09;4982681;28;19929;-84
2023/02/14 08:28:23;;;;;;;;;;;8.20;75.60;;;7.07;60.10;102339.88;4984015;28;20023;-84
2023/02/14 08:30:50;;;;;;;;;;;8.20;75.80;;;7.11;60.21;102349.25;4987553;28;19933;-84
2023/02/14 08:33:17;;;;;;;;;;;8.20;75.90;;;7.16;60.95;102348.81;4991524;28;19930;-83
2023/02/14 08:35:44;;;;;;;;;;;8.20;76.80;;;7.19;61.18;102352.03;4972496;28;19929;-84
2023/02/14 08:38:12;;;;;;;;;;;8.30;77.10;;;7.23;61.48;102361.38;4977826;28;19972;-84
2023/02/14 08:40:39;;;;;;;;;;;8.30;77.50;;;7.26;61.95;102356.75;4981886;28;19930;-84
2023/02/14 08:43:08;;;;;;;;;;;8.40;77.60;;;7.29;62.12;102354.66;4986246;28;20025;-84
2023/02/14 08:45:35;;;;;;;;;;;8.40;78.00;;;7.32;62.71;102359.69;4983376;28;20274;-83
2023/02/14 08:48:03;;;;;;;;;;;8.50;78.60;;;7.32;62.51;102364.13;4969502;28;20314;-82
2023/02/14 08:50:30;;;;;;;;;;;8.60;78.40;;;7.36;62.66;102360.22;4989043;28;19949;-87
2023/02/14 08:52:58;;;;;;;;;;;8.50;78.40;;;7.39;62.60;102354.63;4970919;28;19934;-84
2023/02/14 08:55:25;;;;;;;;;;;8.50;78.60;;;7.41;62.71;102366.78;4984670;28;19933;-82
2023/02/14 08:57:52;;;;;;;;;;;8.50;78.50;;;7.46;62.75;102358.38;4979912;28;20314;-83
2023/02/14 09:00:21;;;;;;;;;;;8.50;78.70;;;7.51;62.39;102364.09;4981406;28;19968;-84
2023/02/14 09:02:50;;;;;;;;;;;8.60;78.40;;;7.52;62.47;102355.16;4984487;28;20155;-84
2023/02/14 09:05:17;;;;;;;;;;;8.60;78.50;;;7.53;63.00;102361.31;4983475;28;20382;-84
2023/02/14 09:07:44;;;;;;;;;;;8.60;78.60;;;7.51;62.94;102356.13;4985905;28;19941;-84
2023/02/14 09:10:12;;;;;;;;;;;8.70;78.60;;;7.58;63.64;102353.75;4971398;28;20021;-84
2023/02/14 09:12:40;;;;;;;;;;;8.70;79.40;;;7.62;63.00;102355.97;4984847;28;19937;-83
2023/02/14 09:15:08;;;;;;;;;;;8.70;78.80;;;7.65;62.69;102350.34;4989101;28;20345;-83
2023/02/14 09:17:37;;;;;;;;;;;8.80;78.80;;;7.67;63.77;102342.25;4985338;28;20014;-83
2023/02/14 09:20:05;;;;;;;;;;;8.80;79.80;;;7.72;63.74;102346.16;4988158;28;20302;-84
2023/02/14 09:22:32;;;;;;;;;;;8.80;79.40;;;7.75;63.17;102329.91;4982269;28;20028;-83
2023/02/14 09:24:59;;;;;;;;;;;8.90;78.90;;;7.81;62.98;102338.25;4983505;28;19958;-83
2023/02/14 09:27:27;;;;;;;;;;;8.90;78.80;;;7.85;62.70;102329.84;4990392;28;20029;-82
2023/02/14 09:29:54;;;;;;;;;;;9.00;78.40;;;7.89;63.21;102325.94;4989362;28;19936;-83
2023/02/14 09:32:21;;;;;;;;;;;9.00;79.20;;;7.96;63.39;102326.19;4973692;28;20305;-82
2023/02/14 09:34:49;;;;;;;;;;;9.00;79.60;;;7.95;63.61;102319.19;4984356;28;19927;-81
2023/02/14 09:40:01;;;;;;;;;;;9.10;79.90;;;8.03;63.38;102321.94;4978568;28;20012;-82
2023/02/14 09:42:45;;;;;;;;;;;9.20;79.30;;;8.08;63.76;102330.31;4992851;28;20038;-82
2023/02/14 09:45:14;;;;;;;;;;;9.20;79.90;;;8.11;63.58;102324.69;4973043;28;19926;-82
2023/02/14 09:47:46;;;;;;;;;;;9.20;79.70;;;8.19;63.88;102324.78;4990166;28;20040;-83
2023/02/14 09:50:23;;;;;;;;;;;9.30;80.10;;;8.26;63.87;102317.06;4990206;28;20370;-83
2023/02/14 09:53:01;;;;;;;;;;;9.30;80.00;;;8.29;63.82;102316.72;4995068;28;19960;-84
2023/02/14 09:55:34;;;;;;;;;;;9.40;79.80;;;8.33;63.40;102322.59;4989532;28;19926;-84
2023/02/14 09:58:09;;;;;;;;;;;9.40;79.50;;;8.35;63.06;102315.31;4985239;28;20504;-84
2023/02/14 10:00:39;;;;;;;;;;;9.40;79.10;;;8.39;62.76;102314.03;4976699;28;20349;-84
2023/02/14 10:03:33;;;;;;;;;;;9.50;78.80;;;8.42;62.72;102311.09;4994034;28;19930;-84
2023/02/14 10:06:06;;;;;;;;;;;9.60;78.50;;;8.43;62.20;102313.59;4988513;28;20457;-83
2023/02/14 10:08:47;;;;;;;;;;;9.50;78.00;;;8.48;61.11;102315.78;4987678;28;20359;-84
2023/02/14 10:11:19;;;;;;;;;;;9.60;77.00;;;8.51;61.30;102319.00;4975930;28;19945;-83
2023/02/14 10:13:50;;;;;;;;;;;9.60;77.30;;;8.53;61.04;102321.50;4996146;28;19925;-83
2023/02/14 10:16:23;;;;;;;;;;;9.60;76.80;;;8.54;61.18;102314.34;5006570;28;19930;-84
2023/02/14 10:18:54;;;;;;;;;;;9.70;77.20;;;8.53;60.62;102318.81;4989067;28;19936;-84
2023/02/14 10:21:25;;;;;;;;;;;9.70;76.60;;;8.60;61.38;102325.22;4989422;28;20325;-84
2023/02/14 10:23:57;;;;;;;;;;;9.70;77.40;;;8.61;61.56;102308.28;4997595;28;19929;-83
2023/02/14 10:26:27;;;;;;;;;;;9.70;77.40;;;8.63;60.91;102311.59;4995057;28;19936;-83
2023/02/14 10:28:55;;;;;;;;;;;9.70;76.80;;;8.67;60.55;102307.66;4975365;28;19968;-83
2023/02/14 10:31:23;;;;;;;;;;;9.80;76.30;;;8.69;60.27;102319.00;5006625;28;19930;-84
2023/02/14 10:33:53;;;;;;;;;;;9.80;76.40;;;8.74;60.66;102306.06;5006732;28;19937;-84
2023/02/14 10:36:46;;;;;;;;;;;9.90;76.50;;;8.79;61.00;102312.75;4999646;28;19925;-84
2023/02/14 10:39:30;;;;;;;;;;;9.90;76.80;;;8.82;60.47;102310.59;4988147;28;19932;-84
2023/02/14 10:42:05;;;;;;;;;;;9.90;76.30;;;8.83;60.19;102308.78;4980962;28;19980;-83
2023/02/14 10:44:44;;;;;;;;;;;9.90;76.00;;;8.81;60.16;102297.47;4992741;28;20396;-83
2023/02/14 10:47:20;;;;;;;;;;;10.00;76.00;;;8.83;60.20;102298.97;4978992;28;19925;-83
2023/02/14 10:49:53;;;;;;;;;;;9.90;76.00;;;8.88;60.13;102302.03;4993414;28;19929;-83
2023/02/14 10:52:25;;;;;;;;;;;10.00;75.90;;;8.90;59.78;102301.88;4998832;28;19934;-83
2023/02/14 10:54:54;;;;;;;;;;;9.90;75.60;;;8.94;60.50;102301.41;4999565;28;19926;-84
2023/02/14 10:57:26;;;;;;;;;;;10.00;76.20;;;8.95;60.00;102288.94;4987091;28;19972;-84
2023/02/14 10:59:55;;;;;;;;;;;10.00;75.80;;;8.95;59.56;102294.25;4969677;28;19988;-84
2023/02/14 11:02:25;;;;;;;;;;;10.00;75.20;;;8.97;59.61;102285.09;4973644;28;19934;-84
2023/02/14 11:04:52;;;;;;;;;;;10.10;75.30;;;9.00;59.10;102286.63;4992865;28;19934;-85
2023/02/14 11:07:21;;;;;;;;;;;10.10;74.70;;;9.03;58.83;102276.53;4974458;28;19929;-84
2023/02/14 11:09:48;;;;;;;;;;;10.10;74.60;;;9.09;58.67;102271.56;4993737;28;19932;-84
2023/02/14 11:12:34;;;;;;;;;;;10.10;74.70;;;9.11;59.04;102275.72;4991330;28;19934;-84
2023/02/14 11:15:22;;;;;;;;;;;10.10;74.90;;;9.13;58.67;102260.44;4997274;28;19926;-84
2023/02/14 11:17:49;;;;;;;;;;;10.20;74.30;;;9.10;58.73;102270.56;4990739;28;19930;-84
2023/02/14 11:20:26;;;;;;;;;;;10.20;74.30;;;9.09;59.07;102267.06;4992819;28;19925;-85
2023/02/14 11:22:55;;;;;;;;;;;10.20;74.70;;;9.09;58.57;102259.09;4974092;28;20235;-84
2023/02/14 11:25:23;;;;;;;;;;;10.20;74.20;;;9.13;58.29;102264.94;4992760;28;19926;-84
2023/02/14 11:27:55;;;;;;;;;;;10.20;73.90;;;9.18;57.81;102252.81;4986370;28;19930;-84
2023/02/14 11:30:26;;;;;;;;;;;10.30;73.40;;;9.23;58.02;102257.66;5004469;28;19930;-84
2023/02/14 11:32:55;;;;;;;;;;;10.30;73.70;;;9.26;58.15;102260.00;4979072;28;19930;-84
2023/02/14 11:35:25;;;;;;;;;;;10.30;74.00;;;9.25;58.09;102255.66;4994103;28;19932;-84
2023/02/14 11:37:56;;;;;;;;;;;10.40;73.60;;;9.27;58.32;102251.88;4975429;28;19953;-84
2023/02/14 11:40:26;;;;;;;;;;;10.30;73.90;;;9.28;57.84;102250.88;4989588;28;19929;-84
2023/02/14 11:42:53;;;;;;;;;;;10.40;73.40;;;9.31;57.36;102243.53;4994410;28;19929;-84
2023/02/14 11:45:29;;;;;;;;;;;10.40;72.80;;;9.33;58.11;102245.06;4990080;28;19936;-84
2023/02/14 11:48:15;;;;;;;;;;;10.40;73.80;;;9.37;57.63;102232.25;4998686;28;19944;-83